หน้าหลัก
METAR-TAF:

METAR-TAF

ท่าอากาศยาน :

Arkhangelsk, รัสเซีย

ละติจูด: 64-30N, ลองจิจูด: 040-44E, ความสูง: 13 ม.

การสังเกตสภาพอากาศปัจจุบัน

รายงานได้ทำขึ้นเมื่อ 22 นาทีที่แล้ว ณ เวลา 20:30 UTC
ลม 8 นอตจากใต้/ตะวันตกเฉียงใต้, แปรผันระหว่างใต้ และตะวันตก/ตะวันตกเฉียงใต้
อุณหภูมิ -1°C
ความชื้น 93%
ความกดอากาศ 1014 hPa
ทัศนวิสัย 10 กม. หรือมากกว่า
มีเมฆมาก มืดครึ้มที่ความสูง 1200 ฟุต

METAR: ULAA 232030Z 21004MPS 170V250 9999 OVC012 M01/M02 Q1014 R26/920550 NOSIG RMK QFE759/1012

เวลา: 23:52 (20:52 UTC)

การพยากรณ์

รายงานได้ทำขึ้นเมื่อ 52 นาทีที่แล้ว ณ เวลา 20:00 UTC
การพยากรณ์มีผลตั้งแต่วันที่ 23 ณ เวลา 21 UTC จนถึงวันที่ 24 ณ เวลา 21 UTC
ลม 8 นอตจากใต้/ตะวันตกเฉียงใต้โดยมีลมกระโชกได้ถึง17 นอต
ทัศนวิสัย 10 กม. หรือมากกว่า
มีเมฆเป็นส่วนมากเว้นเป็นระยะที่ความสูง 1200 ฟุต
ชั่วคราว
ตั้งแต่วันที่ 24 ณ เวลา 01 UTC จนถึงวันที่ 24 ณ เวลา 18 UTC
ลม 12 นอตจากใต้โดยมีลมกระโชกได้ถึง23 นอต
ทัศนวิสัย: 6000 ม.
มีเมฆเป็นส่วนมากเว้นเป็นระยะที่ความสูง 700 ฟุต
หิมะตกเล็กน้อย,

TAF: ULAA 232000Z 2321/2421 20004G09MPS 9999 BKN012 TEMPO 2401/2418 18006G12MPS 6000 -SN BKN007

สังเกตการณ์สภาพอากาศและพยากรณ์อากาศของสนามบินมากกว่า 4000 แห่ง (รายงาน METAR และ TAF).

สถานีที่ดูได้จะแสดงไว้ด้วยจุดสีเหลืองและสีแดงบนแผนที่.

เลื่อนเมาส์ไปเหนือจุดเพื่อดูชื่อสถานี.

แล้วคลิกเพื่อดูสังเกตการณ์และการพยากรณ์สภาพอากาศ.

ในการเปลี่ยนแผนที่: คลิกที่ปุ่มสีเขียวที่มีกากบาทสีดำเพื่อซูมเข้า; ที่ปุ่มสีเขียวที่มีขีดเพื่อซูมออก; หรือที่ลูกศรสีเขียวเพื่อไปยังแผนที่ที่อยู่ติดกัน.


METAR-TAF: